createdAt,value
2019-04-21T00:00:45.549Z,4.13
2019-04-21T00:03:19.360Z,3.97
2019-04-21T00:06:03.295Z,3.47
2019-04-21T00:08:45.850Z,4.20
2019-04-21T00:11:02.954Z,4.00
2019-04-21T00:13:20.731Z,4.20
2019-04-21T00:15:40.674Z,3.87
2019-04-21T00:18:07.140Z,4.00
2019-04-21T00:20:39.661Z,4.10
2019-04-21T00:23:19.520Z,3.73
2019-04-21T00:25:44.532Z,3.80
2019-04-21T00:28:25.191Z,4.80
2019-04-21T00:30:45.647Z,3.63
2019-04-21T00:33:05.209Z,5.43
2019-04-21T00:35:27.443Z,4.00
2019-04-21T00:38:13.655Z,3.80
2019-04-21T00:40:41.784Z,5.20
2019-04-21T00:43:11.742Z,5.07
2019-04-21T00:45:31.501Z,5.10
2019-04-21T00:48:12.981Z,4.13
2019-04-21T00:50:40.575Z,3.90
2019-04-21T00:53:05.494Z,4.73
2019-04-21T00:55:38.618Z,3.50
2019-04-21T00:58:03.730Z,3.67
2019-04-21T01:00:36.404Z,3.77
2019-04-21T01:03:04.961Z,3.67
2019-04-21T01:05:27.133Z,4.10
2019-04-21T01:07:59.383Z,4.00
2019-04-21T01:10:20.806Z,3.70
2019-04-21T01:12:58.913Z,3.63
2019-04-21T01:15:31.093Z,5.40
2019-04-21T01:18:01.499Z,4.10
2019-04-21T01:20:15.998Z,3.83
2019-04-21T01:22:34.511Z,4.33
2019-04-21T01:25:12.141Z,4.10
2019-04-21T01:27:50.759Z,4.37
2019-04-21T01:30:19.291Z,3.93
2019-04-21T01:32:48.370Z,4.50
2019-04-21T01:35:16.414Z,4.00
2019-04-21T01:37:49.534Z,6.73
2019-04-21T01:40:16.848Z,4.77
2019-04-21T01:42:45.951Z,4.37
2019-04-21T01:45:11.385Z,4.00
2019-04-21T01:47:36.157Z,3.50
2019-04-21T01:49:56.551Z,3.90
2019-04-21T01:52:44.129Z,4.33
2019-04-21T01:55:06.392Z,5.90
2019-04-21T01:57:33.317Z,3.47
2019-04-21T01:59:54.919Z,4.30
2019-04-21T02:02:32.597Z,5.20
2019-04-21T02:05:04.372Z,3.40
2019-04-21T02:07:27.505Z,3.53
2019-04-21T02:09:59.362Z,3.33
2019-04-21T02:12:30.251Z,4.70
2019-04-21T02:14:58.821Z,3.83
2019-04-21T02:17:23.929Z,3.70
2019-04-21T02:19:45.840Z,3.87
2019-04-21T02:22:25.863Z,3.70
2019-04-21T02:25:08.603Z,4.17
2019-04-21T02:27:19.217Z,4.87
2019-04-21T02:29:47.133Z,3.87
2019-04-21T02:37:36.764Z,3.63
2019-04-21T02:39:57.649Z,4.33
2019-04-21T02:44:52.073Z,4.03
2019-04-21T02:47:21.196Z,3.97
2019-04-21T02:49:56.097Z,4.40
2019-04-21T02:59:47.898Z,3.63
2019-04-21T03:02:25.026Z,4.03
2019-04-21T03:04:42.563Z,4.43
2019-04-21T03:07:13.510Z,3.80
2019-04-21T03:17:10.106Z,4.33
2019-04-21T03:22:05.183Z,4.37
2019-04-21T03:24:50.109Z,4.43
2019-04-21T03:27:12.146Z,5.77
2019-04-21T03:29:44.460Z,4.20
2019-04-21T03:32:14.354Z,4.17
2019-04-21T03:34:41.822Z,4.43
2019-04-21T03:37:14.024Z,4.10
2019-04-21T03:39:29.508Z,3.90
2019-04-21T03:41:59.772Z,4.70
2019-04-21T03:46:53.076Z,4.50
2019-04-21T03:49:27.973Z,4.77
2019-04-21T03:51:48.659Z,5.57
2019-04-21T03:54:18.162Z,5.67
2019-04-21T03:59:03.699Z,5.67
2019-04-21T04:01:44.507Z,4.93
2019-04-21T04:04:22.378Z,4.33
2019-04-21T04:14:14.105Z,5.00
2019-04-21T04:16:37.852Z,4.27
2019-04-21T04:18:57.917Z,4.20
2019-04-21T04:21:48.030Z,5.43
2019-04-21T04:26:39.342Z,5.80
2019-04-21T04:28:54.248Z,4.30
2019-04-21T04:31:35.375Z,5.10
2019-04-21T04:33:55.620Z,5.27
2019-04-21T04:39:01.381Z,8.93
2019-04-21T04:43:49.777Z,6.77
2019-04-21T04:46:18.420Z,5.33
2019-04-21T04:48:41.972Z,6.63
2019-04-21T04:51:33.368Z,5.93
2019-04-21T05:01:14.185Z,6.63
2019-04-21T05:03:43.959Z,10.83
2019-04-21T05:09:04.198Z,7.63
2019-04-21T05:11:30.497Z,7.53
2019-04-21T05:13:54.984Z,8.47
2019-04-21T05:16:25.640Z,10.20
2019-04-21T05:18:52.869Z,11.33
2019-04-21T05:21:24.828Z,10.23
2019-04-21T05:23:41.276Z,9.47
2019-04-21T05:26:01.308Z,7.90
2019-04-21T05:28:28.519Z,8.80
2019-04-21T05:31:06.254Z,7.47
2019-04-21T05:33:38.090Z,7.57
2019-04-21T05:35:56.815Z,7.87
2019-04-21T05:38:30.384Z,8.40
2019-04-21T05:40:48.357Z,10.10
2019-04-21T05:43:28.104Z,11.23
2019-04-21T05:46:02.608Z,11.97
2019-04-21T05:50:49.829Z,9.27
2019-04-21T05:53:26.702Z,9.60
2019-04-21T05:55:58.402Z,9.20
2019-04-21T05:58:11.590Z,11.03
2019-04-21T06:01:15.087Z,8.47
2019-04-21T06:03:29.619Z,8.50
2019-04-21T06:06:03.395Z,6.83
2019-04-21T06:08:17.929Z,6.97
2019-04-21T06:10:53.898Z,6.43
2019-04-21T06:15:49.999Z,5.30
2019-04-21T06:18:25.981Z,5.67
2019-04-21T06:20:51.567Z,6.17
2019-04-21T06:23:12.065Z,7.33
2019-04-21T06:25:54.623Z,8.63
2019-04-21T06:28:11.987Z,6.33
2019-04-21T06:32:59.514Z,6.57
2019-04-21T06:35:54.160Z,7.63
2019-04-21T06:38:03.735Z,5.77
2019-04-21T06:40:36.901Z,5.63
2019-04-21T06:43:15.791Z,5.40
2019-04-21T06:45:36.676Z,5.40
2019-04-21T06:48:08.809Z,5.03
2019-04-21T06:50:37.716Z,5.73
2019-04-21T06:53:20.767Z,5.83
2019-04-21T06:55:27.836Z,5.43
2019-04-21T06:57:58.236Z,6.10
2019-04-21T07:00:31.581Z,7.00
2019-04-21T07:03:11.514Z,5.10
2019-04-21T07:05:38.802Z,5.10
2019-04-21T07:08:14.788Z,4.97
2019-04-21T07:10:30.749Z,5.27
2019-04-21T07:12:52.844Z,7.27
2019-04-21T07:15:30.799Z,5.43
2019-04-21T07:17:59.910Z,4.43
2019-04-21T07:20:21.923Z,4.37
2019-04-21T07:22:54.239Z,4.50
2019-04-21T07:25:26.395Z,4.33
2019-04-21T07:27:52.366Z,3.77
2019-04-21T07:30:21.215Z,4.23
2019-04-21T07:35:17.837Z,3.87
2019-04-21T07:37:52.337Z,4.23
2019-04-21T07:40:09.322Z,4.23
2019-04-21T07:42:40.099Z,3.50
2019-04-21T07:45:04.625Z,5.80
2019-04-21T07:47:42.545Z,4.13
2019-04-21T07:50:08.847Z,4.27
2019-04-21T07:52:55.131Z,3.90
2019-04-21T07:55:18.656Z,4.20
2019-04-21T07:57:31.827Z,3.37
2019-04-21T08:00:16.084Z,3.17
2019-04-21T08:02:29.530Z,3.20
2019-04-21T08:05:05.586Z,3.30
2019-04-21T08:07:30.799Z,3.70
2019-04-21T08:09:51.346Z,3.90
2019-04-21T08:12:20.379Z,4.00
2019-04-21T08:14:50.716Z,4.07
2019-04-21T08:17:16.165Z,4.50
2019-04-21T08:19:43.025Z,4.30
2019-04-21T08:22:18.575Z,5.30
2019-04-21T08:24:50.853Z,4.13
2019-04-21T08:27:18.960Z,3.97
2019-04-21T08:29:45.981Z,4.20
2019-04-21T08:32:19.908Z,4.40
2019-04-21T08:34:49.628Z,4.17
2019-04-21T08:37:15.154Z,4.97
2019-04-21T08:39:53.539Z,3.90
2019-04-21T08:42:03.326Z,4.00
2019-04-21T08:47:07.895Z,4.30
2019-04-21T08:49:35.100Z,4.10
2019-04-21T08:52:16.760Z,5.10
2019-04-21T08:54:29.165Z,4.20
2019-04-21T08:57:01.444Z,4.73
2019-04-21T08:59:31.393Z,3.47
2019-04-21T09:01:55.472Z,3.67
2019-04-21T09:04:24.542Z,3.87
2019-04-21T09:09:23.721Z,3.97
2019-04-21T09:11:50.977Z,3.60
2019-04-21T09:14:21.103Z,3.60
2019-04-21T09:16:44.339Z,3.57
2019-04-21T09:19:20.302Z,3.60
2019-04-21T09:21:43.639Z,3.13
2019-04-21T09:24:14.754Z,3.57
2019-04-21T09:26:36.973Z,2.80
2019-04-21T09:29:03.415Z,3.17
2019-04-21T09:31:24.097Z,3.33
2019-04-21T09:33:50.833Z,3.30
2019-04-21T09:36:20.146Z,3.03
2019-04-21T09:38:50.733Z,4.50
2019-04-21T09:41:18.469Z,3.57
2019-04-21T09:43:46.858Z,3.33
2019-04-21T09:46:11.653Z,3.43
2019-04-21T09:48:50.075Z,3.17
2019-04-21T09:51:07.189Z,2.90
2019-04-21T09:53:38.003Z,4.20
2019-04-21T09:56:05.452Z,3.63
2019-04-21T09:58:38.464Z,2.63
2019-04-21T10:01:09.163Z,3.03
2019-04-21T10:03:39.638Z,2.73
2019-04-21T10:05:59.020Z,2.90
2019-04-21T10:08:27.183Z,2.90
2019-04-21T10:10:54.690Z,2.63
2019-04-21T10:13:23.330Z,3.20
2019-04-21T10:15:56.373Z,3.37
2019-04-21T10:18:29.364Z,4.93
2019-04-21T10:21:01.545Z,3.33
2019-04-21T10:23:39.454Z,2.90
2019-04-21T10:26:12.683Z,2.90
2019-04-21T10:28:48.944Z,2.53
2019-04-21T10:31:20.827Z,2.67
2019-04-21T10:33:48.430Z,2.87
2019-04-21T10:36:15.354Z,3.00
2019-04-21T10:38:46.480Z,2.77
2019-04-21T10:41:11.821Z,2.70
2019-04-21T10:43:38.668Z,2.70
2019-04-21T10:46:06.604Z,2.87
2019-04-21T10:48:35.060Z,2.40
2019-04-21T10:51:03.148Z,2.47
2019-04-21T10:53:31.199Z,2.63
2019-04-21T10:56:11.474Z,2.30
2019-04-21T10:58:26.726Z,2.70
2019-04-21T11:00:54.168Z,2.60
2019-04-21T11:03:22.744Z,2.80
2019-04-21T11:05:50.516Z,2.30
2019-04-21T11:08:23.627Z,3.60
2019-04-21T11:10:45.858Z,2.50
2019-04-21T11:13:12.741Z,2.50
2019-04-21T11:15:39.492Z,3.30
2019-04-21T11:18:06.261Z,3.53
2019-04-21T11:20:33.166Z,2.40
2019-04-21T11:22:59.924Z,2.60
2019-04-21T11:25:26.665Z,2.47
2019-04-21T11:27:53.438Z,2.40
2019-04-21T11:30:20.180Z,2.93
2019-04-21T11:32:48.239Z,2.63
2019-04-21T11:35:15.631Z,2.37
2019-04-21T11:37:44.067Z,2.67
2019-04-21T11:40:14.951Z,2.30
2019-04-21T11:42:39.906Z,2.60
2019-04-21T11:45:08.362Z,2.60
2019-04-21T11:47:36.304Z,2.50
2019-04-21T11:50:05.337Z,2.67
2019-04-21T11:52:32.635Z,2.60
2019-04-21T11:55:00.478Z,2.47
2019-04-21T11:57:30.754Z,3.03
2019-04-21T11:59:56.001Z,2.30
2019-04-21T12:02:23.565Z,3.10
2019-04-21T12:04:51.553Z,2.27
2019-04-21T12:07:19.610Z,2.70
2019-04-21T12:09:47.795Z,2.60
2019-04-21T12:12:15.069Z,2.90
2019-04-21T12:14:41.935Z,2.77
2019-04-21T12:17:09.767Z,2.23
2019-04-21T12:19:36.853Z,2.73
2019-04-21T12:22:11.266Z,2.70
2019-04-21T12:24:33.396Z,2.50
2019-04-21T12:27:02.163Z,2.30
2019-04-21T12:29:30.563Z,5.23
2019-04-21T12:31:57.466Z,2.57
2019-04-21T12:34:24.184Z,3.77
2019-04-21T12:36:50.919Z,2.60
2019-04-21T12:39:18.761Z,2.47
2019-04-21T12:41:46.677Z,2.80
2019-04-21T12:44:13.423Z,7.00
2019-04-21T12:46:40.340Z,3.70
2019-04-21T12:49:07.634Z,4.50
2019-04-21T12:51:35.592Z,3.03
2019-04-21T12:54:03.782Z,2.90
2019-04-21T12:56:31.806Z,2.40
2019-04-21T12:58:59.544Z,2.40
2019-04-21T13:01:27.367Z,2.53
2019-04-21T13:03:55.471Z,2.50
2019-04-21T13:06:23.420Z,2.60
2019-04-21T13:08:58.947Z,2.50
2019-04-21T13:11:19.194Z,2.90
2019-04-21T13:13:46.118Z,2.90
2019-04-21T13:16:13.654Z,2.67
2019-04-21T13:18:41.664Z,2.73
2019-04-21T13:21:09.883Z,2.97
2019-04-21T13:23:37.037Z,3.77
2019-04-21T13:26:04.944Z,3.00
2019-04-21T13:28:32.828Z,3.17
2019-04-21T13:31:00.190Z,3.13
2019-04-21T13:33:27.229Z,2.57
2019-04-21T13:35:55.146Z,5.83
2019-04-21T13:38:30.076Z,2.73
2019-04-21T13:41:04.870Z,2.60
2019-04-21T13:43:20.947Z,2.67
2019-04-21T13:45:47.981Z,2.63
2019-04-21T13:48:14.840Z,2.37
2019-04-21T13:50:41.817Z,2.60
2019-04-21T13:53:09.048Z,2.47
2019-04-21T13:55:37.074Z,2.60
2019-04-21T13:58:04.410Z,2.50
2019-04-21T14:00:31.804Z,2.83
2019-04-21T14:02:58.847Z,4.67
2019-04-21T14:05:26.521Z,2.80
2019-04-21T14:07:54.433Z,2.80
2019-04-21T14:10:21.848Z,3.20
2019-04-21T14:12:48.996Z,2.43
2019-04-21T14:15:20.126Z,2.90
2019-04-21T14:17:47.131Z,2.43
2019-04-21T14:20:15.222Z,2.77
2019-04-21T14:22:42.218Z,3.13
2019-04-21T14:25:09.969Z,2.40
2019-04-21T14:27:36.711Z,2.73
2019-04-21T14:30:08.365Z,2.60
2019-04-21T14:32:35.993Z,2.80
2019-04-21T14:35:06.932Z,2.67
2019-04-21T14:37:36.352Z,2.50
2019-04-21T14:40:13.646Z,2.50
2019-04-21T14:42:48.341Z,2.83
2019-04-21T14:45:20.878Z,2.50
2019-04-21T14:47:53.942Z,2.60
2019-04-21T14:50:26.498Z,2.50
2019-04-21T14:53:01.978Z,2.70
2019-04-21T14:58:33.395Z,2.37
2019-04-21T15:01:10.397Z,2.50
2019-04-21T15:03:41.976Z,2.70
2019-04-21T15:06:17.121Z,5.67
2019-04-21T15:08:57.969Z,2.60
2019-04-21T15:11:27.448Z,2.70
2019-04-21T15:13:59.758Z,3.73
2019-04-21T15:16:31.486Z,3.10
2019-04-21T15:19:04.288Z,2.77
2019-04-21T15:21:40.508Z,2.80
2019-04-21T15:24:08.567Z,2.60
2019-04-21T15:26:35.959Z,3.00
2019-04-21T15:29:03.057Z,2.80
2019-04-21T15:31:34.797Z,2.70
2019-04-21T15:33:59.111Z,2.80
2019-04-21T15:36:27.255Z,3.00
2019-04-21T15:38:54.166Z,3.83
2019-04-21T15:41:20.938Z,3.30
2019-04-21T15:43:48.836Z,6.33
2019-04-21T15:46:15.661Z,3.10
2019-04-21T15:48:42.415Z,3.57
2019-04-21T15:51:10.892Z,5.60
2019-04-21T15:53:37.755Z,3.20
2019-04-21T15:56:04.713Z,3.17
2019-04-21T15:58:32.432Z,3.37
2019-04-21T16:01:00.583Z,5.13
2019-04-21T16:03:28.932Z,4.10
2019-04-21T16:05:55.918Z,3.20
2019-04-21T16:08:22.671Z,2.83
2019-04-21T16:10:56.210Z,3.10
2019-04-21T16:13:19.359Z,10.77
2019-04-21T16:15:46.361Z,6.37
2019-04-21T16:18:14.183Z,6.17
2019-04-21T16:20:41.864Z,3.67
2019-04-21T16:23:08.725Z,3.60
2019-04-21T16:25:36.814Z,3.40
2019-04-21T16:28:05.612Z,3.10
2019-04-21T16:30:32.375Z,3.60
2019-04-21T16:32:59.886Z,4.87
2019-04-21T16:35:26.848Z,4.27
2019-04-21T16:37:56.871Z,3.90
2019-04-21T16:40:23.418Z,3.10
2019-04-21T16:42:50.273Z,4.10
2019-04-21T16:45:18.905Z,3.83
2019-04-21T16:47:47.480Z,4.23
2019-04-21T16:50:16.757Z,3.13
2019-04-21T16:52:43.788Z,3.30
2019-04-21T16:55:10.921Z,3.77
2019-04-21T16:57:37.802Z,6.80
2019-04-21T17:00:08.710Z,4.93
2019-04-21T17:02:36.722Z,3.77
2019-04-21T17:05:06.690Z,3.43
2019-04-21T17:07:33.667Z,4.50
2019-04-21T17:10:00.446Z,4.13
2019-04-21T17:12:28.799Z,3.67
2019-04-21T17:15:10.732Z,3.97
2019-04-21T17:17:45.870Z,4.27
2019-04-21T17:19:55.923Z,7.93
2019-04-21T17:22:21.904Z,6.60
2019-04-21T17:24:48.624Z,8.20
2019-04-21T17:27:15.486Z,4.20
2019-04-21T17:29:43.046Z,3.63
2019-04-21T17:32:09.922Z,3.50
2019-04-21T17:34:37.969Z,3.97
2019-04-21T17:37:05.538Z,5.07
2019-04-21T17:39:32.351Z,3.73
2019-04-21T17:42:11.755Z,8.00
2019-04-21T17:44:27.880Z,4.23
2019-04-21T17:47:01.535Z,5.10
2019-04-21T17:49:23.514Z,4.37
2019-04-21T17:51:55.641Z,4.40
2019-04-21T17:54:27.582Z,4.70
2019-04-21T17:57:13.689Z,5.67
2019-04-21T17:59:45.063Z,4.50
2019-04-21T18:02:03.933Z,6.70
2019-04-21T18:04:31.814Z,7.57
2019-04-21T18:07:05.098Z,7.13
2019-04-21T18:09:44.060Z,5.03
2019-04-21T18:12:07.547Z,5.93
2019-04-21T18:14:21.328Z,5.50
2019-04-21T18:16:48.641Z,6.33
2019-04-21T18:19:27.882Z,5.17
2019-04-21T18:21:56.044Z,5.87
2019-04-21T18:24:22.576Z,6.10
2019-04-21T18:26:54.390Z,6.33
2019-04-21T18:29:16.229Z,6.23
2019-04-21T18:31:48.314Z,5.53
2019-04-21T18:34:16.287Z,6.10
2019-04-21T18:36:45.492Z,5.40
2019-04-21T18:39:21.615Z,5.93
2019-04-21T18:41:42.685Z,6.70
2019-04-21T18:47:02.623Z,5.23
2019-04-21T18:49:06.254Z,5.53
2019-04-21T18:51:40.288Z,6.67
2019-04-21T18:54:20.960Z,5.03
2019-04-21T18:56:31.489Z,5.40
2019-04-21T18:58:58.446Z,5.23
2019-04-21T19:01:29.340Z,8.43
2019-04-21T19:03:56.012Z,7.83
2019-04-21T19:06:43.901Z,5.40
2019-04-21T19:09:11.594Z,7.70
2019-04-21T19:11:35.908Z,6.70
2019-04-21T19:17:02.617Z,7.97
2019-04-21T19:19:22.643Z,6.17
2019-04-21T19:21:31.149Z,5.53
2019-04-21T19:24:10.733Z,5.43
2019-04-21T19:26:38.030Z,6.20
2019-04-21T19:29:02.488Z,5.50
2019-04-21T19:31:31.559Z,6.10
2019-04-21T19:33:48.104Z,7.00
2019-04-21T19:36:07.523Z,6.73
2019-04-21T19:38:45.702Z,6.40
2019-04-21T19:41:20.462Z,6.23
2019-04-21T19:43:56.335Z,6.27
2019-04-21T19:46:18.108Z,6.00
2019-04-21T19:48:56.679Z,6.20
2019-04-21T19:51:15.475Z,11.70
2019-04-21T19:53:42.138Z,6.00
2019-04-21T19:55:56.190Z,7.13
2019-04-21T19:58:28.890Z,6.20
2019-04-21T20:00:55.546Z,5.83
2019-04-21T20:03:20.946Z,6.33
2019-04-21T20:05:59.350Z,7.33
2019-04-21T20:08:31.957Z,7.37
2019-04-21T20:11:05.286Z,7.00
2019-04-21T20:13:50.879Z,6.80
2019-04-21T20:16:03.915Z,7.97
2019-04-21T20:18:20.930Z,7.67
2019-04-21T20:20:41.121Z,7.20
2019-04-21T20:23:13.165Z,6.80
2019-04-21T20:25:45.943Z,8.23
2019-04-21T20:28:14.767Z,8.57
2019-04-21T20:30:49.023Z,7.23
2019-04-21T20:33:42.921Z,7.10
2019-04-21T20:35:55.825Z,7.30
2019-04-21T20:38:12.551Z,7.87
2019-04-21T20:40:39.975Z,7.63
2019-04-21T20:43:17.686Z,7.90
2019-04-21T20:45:48.330Z,7.40
2019-04-21T20:47:55.770Z,7.70
2019-04-21T20:50:33.483Z,7.27
2019-04-21T20:53:11.310Z,7.73
2019-04-21T20:55:29.709Z,7.47
2019-04-21T20:57:58.028Z,7.30
2019-04-21T21:00:45.197Z,6.77
2019-04-21T21:03:07.123Z,7.43
2019-04-21T21:05:28.405Z,8.10
2019-04-21T21:08:05.955Z,7.77
2019-04-21T21:10:25.137Z,7.50
2019-04-21T21:13:06.328Z,7.97
2019-04-21T21:15:25.942Z,7.80
2019-04-21T21:17:59.862Z,7.30
2019-04-21T21:20:33.528Z,7.93
2019-04-21T21:22:50.669Z,7.40
2019-04-21T21:25:38.315Z,8.03
2019-04-21T21:27:48.476Z,7.83
2019-04-21T21:30:21.611Z,7.50
2019-04-21T21:32:58.712Z,9.73
2019-04-21T21:35:19.249Z,7.63
2019-04-21T21:37:54.923Z,7.80
2019-04-21T21:40:21.817Z,11.00
2019-04-21T21:42:37.511Z,8.17
2019-04-21T21:45:08.355Z,7.43
2019-04-21T21:47:47.523Z,7.67
2019-04-21T21:50:07.329Z,7.53
2019-04-21T21:52:42.383Z,7.60
2019-04-21T21:54:55.984Z,7.27
2019-04-21T21:57:23.029Z,7.67
2019-04-21T21:59:54.332Z,7.97
2019-04-21T22:02:29.315Z,7.77
2019-04-21T22:04:58.254Z,8.37
2019-04-21T22:07:17.809Z,8.27
2019-04-21T22:09:44.342Z,8.07
2019-04-21T22:12:12.380Z,8.33
2019-04-21T22:14:44.883Z,7.97
2019-04-21T22:17:27.463Z,7.63
2019-04-21T22:20:06.092Z,7.27
2019-04-21T22:22:17.963Z,7.33
2019-04-21T22:24:46.472Z,8.20
2019-04-21T22:27:03.178Z,7.13
2019-04-21T22:29:38.139Z,8.53
2019-04-21T22:32:05.479Z,7.93
2019-04-21T22:34:32.702Z,7.73
2019-04-21T22:37:07.095Z,7.83
2019-04-21T22:39:43.433Z,7.53
2019-04-21T22:42:01.730Z,7.50
2019-04-21T22:44:22.728Z,7.67
2019-04-21T22:46:58.588Z,7.80
2019-04-21T22:49:19.713Z,7.87
2019-04-21T22:51:49.750Z,7.70
2019-04-21T22:54:20.779Z,7.87
2019-04-21T22:56:53.015Z,7.50
2019-04-21T22:59:18.655Z,8.40
2019-04-21T23:01:45.084Z,7.87
2019-04-21T23:04:10.715Z,7.40
2019-04-21T23:06:39.596Z,9.90
2019-04-21T23:09:08.795Z,7.60
2019-04-21T23:11:41.628Z,7.43
2019-04-21T23:14:08.100Z,7.57
2019-04-21T23:16:37.820Z,7.77
2019-04-21T23:19:21.991Z,7.10
2019-04-21T23:21:55.356Z,8.33
2019-04-21T23:24:14.823Z,8.27
2019-04-21T23:26:41.947Z,7.63
2019-04-21T23:29:17.338Z,7.90
2019-04-21T23:31:53.719Z,7.43
2019-04-21T23:33:58.134Z,8.20
2019-04-21T23:36:29.686Z,7.60
2019-04-21T23:38:55.393Z,8.40
2019-04-21T23:41:25.984Z,8.17
2019-04-21T23:43:57.613Z,8.20
2019-04-21T23:46:25.843Z,7.30
2019-04-21T23:49:01.701Z,7.33
2019-04-21T23:51:33.054Z,7.90
2019-04-21T23:53:45.034Z,7.37
2019-04-21T23:56:15.761Z,8.13
2019-04-21T23:58:40.398Z,7.10
